Time;durP1;ratioP1;P1;durP2;ratioP2;P2;SDS_P1;SDS_P2;PMS_P1;PMS_P2;Temp;Humidity;BMP_temperature;BMP_pressure;BME280_temperature;BME280_humidity;BME280_pressure;Samples;Min_cycle;Max_cycle;Signal;HPM_P1;HPM_P2
2023/08/13 00:00:16;;;;;;;7.22;2.60;;;;;;;16.21;88.01;101652.53;5103448;28;20023;-48
2023/08/13 00:02:42;;;;;;;11.65;3.05;;;;;;;16.18;89.05;101651.94;5092038;28;20040;-48
2023/08/13 00:05:08;;;;;;;7.13;2.92;;;;;;;16.16;88.32;101652.06;5100093;28;20543;-50
2023/08/13 00:07:33;;;;;;;10.13;2.70;;;;;;;16.17;88.09;101652.91;5096040;28;20020;-51
2023/08/13 00:09:58;;;;;;;12.88;3.05;;;;;;;16.13;88.20;101641.63;5097675;28;20047;-49
2023/08/13 00:12:24;;;;;;;10.57;3.15;;;;;;;16.10;88.58;101647.25;5093680;28;20016;-51
2023/08/13 00:14:49;;;;;;;12.85;2.88;;;;;;;16.09;88.65;101651.75;5098867;28;20111;-48
2023/08/13 00:17:14;;;;;;;11.85;2.88;;;;;;;16.07;88.86;101645.69;5097901;28;20055;-48
2023/08/13 00:19:41;;;;;;;10.10;2.83;;;;;;;16.03;88.92;101646.09;5101157;28;20482;-50
2023/08/13 00:22:06;;;;;;;10.85;3.10;;;;;;;16.02;89.87;101637.22;5102295;28;20028;-49
2023/08/13 00:24:32;;;;;;;9.07;2.80;;;;;;;16.02;89.55;101636.34;5097533;28;20123;-49
2023/08/13 00:26:57;;;;;;;10.57;3.20;;;;;;;16.01;90.02;101638.19;5096650;27;20035;-48
2023/08/13 00:29:22;;;;;;;8.50;3.20;;;;;;;15.97;90.63;101644.81;5098701;28;20020;-49
2023/08/13 00:31:47;;;;;;;10.60;3.72;;;;;;;15.99;90.71;101642.00;5101698;28;20032;-48
2023/08/13 00:34:13;;;;;;;12.55;3.63;;;;;;;15.96;90.96;101643.09;5099579;28;20024;-49
2023/08/13 00:36:38;;;;;;;8.90;2.80;;;;;;;15.93;91.91;101643.34;5101591;28;20453;-49
2023/08/13 00:39:03;;;;;;;8.18;3.33;;;;;;;15.90;92.59;101638.25;5099363;28;20028;-49
2023/08/13 00:41:29;;;;;;;9.75;2.85;;;;;;;15.87;90.83;101639.38;5100687;28;20035;-48
2023/08/13 00:43:54;;;;;;;14.25;3.03;;;;;;;15.86;91.74;101637.69;5098982;28;20565;-49
2023/08/13 00:46:20;;;;;;;11.50;2.92;;;;;;;15.81;91.67;101633.72;5100552;28;21076;-48
2023/08/13 00:48:47;;;;;;;9.55;3.22;;;;;;;15.81;91.97;101634.56;5098031;28;20116;-48
2023/08/13 00:51:14;;;;;;;10.55;3.75;;;;;;;15.78;91.47;101633.97;5098550;28;20019;-48
2023/08/13 00:53:48;;;;;;;8.93;2.83;;;;;;;15.78;92.07;101634.81;5099387;28;20033;-49
2023/08/13 00:56:14;;;;;;;12.48;3.38;;;;;;;15.73;91.52;101629.81;5097044;28;20035;-49
2023/08/13 00:58:41;;;;;;;8.43;3.00;;;;;;;15.72;91.97;101625.47;5101021;28;20028;-48
2023/08/13 01:01:07;;;;;;;10.68;3.22;;;;;;;15.68;92.30;101631.19;5095456;28;20028;-49
2023/08/13 01:03:33;;;;;;;10.90;3.15;;;;;;;15.67;92.03;101629.50;5099306;28;20543;-49
2023/08/13 01:06:10;;;;;;;13.68;3.40;;;;;;;15.65;92.26;101632.31;5097899;28;20430;-49
2023/08/13 01:09:05;;;;;;;8.90;2.97;;;;;;;15.65;92.30;101637.66;5094711;28;20032;-49
2023/08/13 01:12:02;;;;;;;8.02;2.92;;;;;;;15.66;91.57;101627.81;5097374;28;20415;-48
2023/08/13 01:14:36;;;;;;;9.43;2.90;;;;;;;15.60;92.86;101629.16;5070263;28;20502;-49
2023/08/13 01:17:04;;;;;;;12.95;3.28;;;;;;;15.58;93.44;101638.34;5095818;28;20069;-49
2023/08/13 01:19:30;;;;;;;9.95;3.50;;;;;;;15.57;93.33;101641.97;5094179;28;20120;-49
2023/08/13 01:21:55;;;;;;;10.80;3.28;;;;;;;15.53;93.30;101641.41;5099072;28;20106;-48
2023/08/13 01:24:20;;;;;;;11.27;3.22;;;;;;;15.50;93.69;101644.34;5093565;28;20028;-49
2023/08/13 01:27:19;;;;;;;11.27;3.05;;;;;;;15.47;93.99;101641.91;5098184;28;20089;-49
2023/08/13 01:29:52;;;;;;;10.60;2.80;;;;;;;15.38;93.82;101638.19;5099688;28;20032;-48
2023/08/13 01:32:23;;;;;;;8.02;2.50;;;;;;;15.40;94.83;101638.91;5094771;28;20023;-49
2023/08/13 01:34:50;;;;;;;6.78;2.47;;;;;;;15.36;93.79;101643.66;5087639;28;20046;-49
2023/08/13 01:37:18;;;;;;;9.23;3.10;;;;;;;15.33;94.19;101640.41;5099198;28;20028;-49
2023/08/13 01:39:44;;;;;;;9.45;2.85;;;;;;;15.34;94.56;101640.28;5099625;28;20051;-49
2023/08/13 01:42:11;;;;;;;10.05;2.80;;;;;;;15.33;94.72;101645.75;5102410;28;20096;-49
2023/08/13 01:44:37;;;;;;;10.98;3.15;;;;;;;15.32;94.76;101644.03;5092213;28;20098;-48
2023/08/13 01:47:02;;;;;;;9.07;2.60;;;;;;;15.28;95.08;101643.47;5095588;28;20559;-49
2023/08/13 01:49:27;;;;;;;10.57;2.95;;;;;;;15.27;95.35;101644.47;5104630;28;20028;-48
2023/08/13 01:51:53;;;;;;;8.52;2.67;;;;;;;15.28;95.26;101650.66;5092349;28;20024;-49
2023/08/13 01:54:18;;;;;;;10.40;2.92;;;;;;;15.25;95.34;101641.03;5096628;28;20020;-49
2023/08/13 01:56:43;;;;;;;9.25;3.22;;;;;;;15.24;95.84;101643.84;5096846;28;20050;-49
2023/08/13 01:59:08;;;;;;;14.05;3.15;;;;;;;15.21;96.37;101642.28;5097263;28;20466;-49
2023/08/13 02:01:34;;;;;;;9.70;2.53;;;;;;;15.21;95.84;101642.28;5099882;28;20024;-48
2023/08/13 02:03:59;;;;;;;10.77;2.67;;;;;;;15.18;96.18;101642.53;5095326;28;20113;-49
2023/08/13 02:06:24;;;;;;;11.63;2.67;;;;;;;15.14;96.37;101641.13;5098252;28;20119;-49
2023/08/13 02:08:50;;;;;;;9.52;3.00;;;;;;;15.13;96.43;101642.06;5091066;28;20082;-48
2023/08/13 02:11:15;;;;;;;12.77;2.80;;;;;;;15.12;96.93;101635.88;5100219;28;20544;-49
2023/08/13 02:13:40;;;;;;;8.73;2.50;;;;;;;15.12;97.39;101643.03;5100108;28;20031;-49
2023/08/13 02:16:06;;;;;;;10.55;2.75;;;;;;;15.12;97.70;101638.56;5097157;28;20078;-49
2023/08/13 02:18:31;;;;;;;12.45;3.47;;;;;;;15.08;97.45;101630.91;5093577;28;20077;-49
2023/08/13 02:20:56;;;;;;;7.93;2.60;;;;;;;15.11;97.99;101630.66;5099860;28;20028;-49
2023/08/13 02:23:22;;;;;;;11.93;2.72;;;;;;;15.07;97.68;101626.53;5097789;28;20118;-48
2023/08/13 02:25:47;;;;;;;13.30;3.03;;;;;;;15.06;97.50;101636.38;5096675;28;20035;-49
2023/08/13 02:28:13;;;;;;;12.15;3.10;;;;;;;15.06;97.97;101627.53;5099214;28;20032;-48
2023/08/13 02:30:38;;;;;;;11.20;2.63;;;;;;;15.02;97.79;101626.94;5092003;28;20028;-50
2023/08/13 02:33:04;;;;;;;11.93;2.80;;;;;;;15.04;98.20;101624.97;5097288;28;20534;-49
2023/08/13 02:35:29;;;;;;;12.85;3.15;;;;;;;15.02;98.00;101624.25;5098603;28;20093;-49
2023/08/13 02:37:54;;;;;;;14.85;3.22;;;;;;;15.02;98.58;101618.91;5097843;28;20059;-49
2023/08/13 02:40:20;;;;;;;10.75;2.70;;;;;;;15.01;98.74;101616.34;5094666;28;20051;-48
2023/08/13 02:42:45;;;;;;;9.35;2.47;;;;;;;14.97;97.95;101621.97;5095942;28;20024;-49
2023/08/13 02:45:10;;;;;;;10.60;2.70;;;;;;;14.96;97.51;101624.75;5098196;28;20143;-49
2023/08/13 02:47:35;;;;;;;9.27;2.58;;;;;;;14.97;98.13;101619.28;5096810;28;20046;-49
2023/08/13 02:50:01;;;;;;;8.68;2.53;;;;;;;14.95;99.02;101618.56;5099495;28;20508;-49
2023/08/13 02:52:26;;;;;;;10.23;2.63;;;;;;;14.93;99.68;101617.81;5091743;28;20035;-49
2023/08/13 02:54:51;;;;;;;12.88;2.80;;;;;;;14.92;99.05;101620.63;5098055;28;20084;-49
2023/08/13 02:57:17;;;;;;;11.63;2.85;;;;;;;14.91;99.07;101619.78;5100106;28;20069;-48
2023/08/13 02:59:42;;;;;;;9.35;2.50;;;;;;;14.88;99.50;101620.03;5097873;28;20546;-48
2023/08/13 03:02:08;;;;;;;11.88;2.92;;;;;;;14.88;99.57;101614.69;5093963;28;20530;-49
2023/08/13 03:04:33;;;;;;;11.13;3.08;;;;;;;14.87;99.64;101615.69;5093975;28;20028;-49
2023/08/13 03:06:58;;;;;;;9.90;2.88;;;;;;;14.88;99.33;101619.19;5098858;28;20024;-48
2023/08/13 03:09:24;;;;;;;15.23;3.03;;;;;;;14.86;99.40;101619.31;5097891;28;20026;-49
2023/08/13 03:11:49;;;;;;;13.70;3.25;;;;;;;14.83;99.64;101619.56;5094372;28;20020;-49
2023/08/13 03:14:15;;;;;;;10.02;2.90;;;;;;;14.77;99.44;101618.25;5096491;28;20081;-48
2023/08/13 03:16:40;;;;;;;9.32;2.70;;;;;;;14.77;99.89;101618.25;5096530;28;20027;-48
2023/08/13 03:19:06;;;;;;;9.15;2.88;;;;;;;14.74;100.00;101618.50;5093739;28;20031;-49
2023/08/13 03:21:31;;;;;;;11.63;2.90;;;;;;;14.71;100.00;101616.06;5092505;28;20020;-49
2023/08/13 03:23:56;;;;;;;11.95;2.60;;;;;;;14.70;100.00;101614.38;5099893;28;20034;-48
2023/08/13 03:26:21;;;;;;;11.60;2.78;;;;;;;14.71;100.00;101620.59;5096712;28;20042;-49
2023/08/13 03:28:47;;;;;;;7.90;2.83;;;;;;;14.69;100.00;101615.34;5099158;28;20156;-49
2023/08/13 03:31:12;;;;;;;9.02;2.67;;;;;;;14.67;100.00;101622.66;5102601;28;20040;-48
2023/08/13 03:33:37;;;;;;;8.85;2.65;;;;;;;14.64;100.00;101616.69;5096028;27;20024;-49
2023/08/13 03:36:03;;;;;;;14.57;2.95;;;;;;;14.65;100.00;101618.41;5096727;28;20024;-48
2023/08/13 03:38:29;;;;;;;10.02;3.05;;;;;;;14.60;100.00;101616.97;5098512;28;20028;-48
2023/08/13 03:40:55;;;;;;;9.82;3.00;;;;;;;14.58;100.00;101610.00;5099144;28;20370;-49
2023/08/13 03:43:21;;;;;;;8.15;2.97;;;;;;;14.58;100.00;101610.84;5098921;28;20052;-48
2023/08/13 03:45:47;;;;;;;8.85;3.00;;;;;;;14.56;100.00;101609.28;5099349;28;20149;-48
2023/08/13 03:48:12;;;;;;;10.38;2.92;;;;;;;14.56;100.00;101618.13;5095834;28;20079;-48
2023/08/13 03:50:41;;;;;;;8.35;2.63;;;;;;;14.57;100.00;101610.97;5097196;28;20024;-49
2023/08/13 03:53:09;;;;;;;12.77;3.30;;;;;;;14.58;100.00;101618.00;5098788;28;20443;-49
2023/08/13 03:55:35;;;;;;;8.70;2.72;;;;;;;14.57;100.00;101617.19;5099429;28;20026;-48
2023/08/13 03:58:00;;;;;;;11.07;3.15;;;;;;;14.53;100.00;101617.53;5101677;28;20066;-49
2023/08/13 04:00:26;;;;;;;8.45;3.00;;;;;;;14.54;100.00;101620.09;5095706;28;20020;-49
2023/08/13 04:02:51;;;;;;;11.98;3.38;;;;;;;14.51;100.00;101625.69;5101571;28;20028;-48
2023/08/13 04:05:16;;;;;;;9.82;2.95;;;;;;;14.49;100.00;101624.97;5101001;28;20127;-50
2023/08/13 04:07:42;;;;;;;14.98;3.33;;;;;;;14.50;100.00;101625.81;5097964;28;20071;-50
2023/08/13 04:10:07;;;;;;;9.18;2.88;;;;;;;14.47;100.00;101629.59;5100921;28;20095;-48
2023/08/13 04:12:33;;;;;;;11.35;3.22;;;;;;;14.43;100.00;101630.81;5103898;28;20024;-49
2023/08/13 04:14:58;;;;;;;8.70;2.80;;;;;;;14.41;100.00;101630.06;5102518;28;20041;-49
2023/08/13 04:17:24;;;;;;;9.95;3.05;;;;;;;14.42;100.00;101629.09;5101037;28;20085;-49
2023/08/13 04:19:49;;;;;;;19.13;4.15;;;;;;;14.42;100.00;101631.75;5098658;28;20016;-49
2023/08/13 04:22:15;;;;;;;11.63;2.97;;;;;;;14.45;100.00;101634.19;5099127;28;20027;-49
2023/08/13 04:24:40;;;;;;;8.80;2.88;;;;;;;14.42;100.00;101637.97;5099628;28;20027;-49
2023/08/13 04:27:05;;;;;;;7.78;3.00;;;;;;;14.41;100.00;101638.94;5098602;28;20059;-49
2023/08/13 04:29:31;;;;;;;6.82;2.65;;;;;;;14.39;100.00;101632.03;5097557;28;20435;-49
2023/08/13 04:31:57;;;;;;;12.82;3.28;;;;;;;14.41;100.00;101630.06;5093146;28;20062;-48
2023/08/13 04:34:22;;;;;;;9.25;3.17;;;;;;;14.39;100.00;101634.72;5100504;28;20034;-49
2023/08/13 04:36:47;;;;;;;14.48;3.45;;;;;;;14.40;100.00;101626.53;5101996;28;20065;-48
2023/08/13 04:39:12;;;;;;;10.35;3.20;;;;;;;14.41;100.00;101622.91;5087831;28;20027;-48
2023/08/13 04:41:40;;;;;;;10.90;3.13;;;;;;;14.37;100.00;101621.47;5098990;28;20383;-48
2023/08/13 04:44:05;;;;;;;8.32;3.20;;;;;;;14.41;100.00;101632.75;5097803;28;20585;-49
2023/08/13 04:46:31;;;;;;;9.43;2.97;;;;;;;14.41;100.00;101625.56;5096253;28;20076;-48
2023/08/13 04:48:56;;;;;;;12.02;3.40;;;;;;;14.42;100.00;101634.44;5098460;28;20069;-49
2023/08/13 04:51:22;;;;;;;10.10;3.17;;;;;;;14.43;100.00;101644.16;5099886;28;20031;-49
2023/08/13 04:53:47;;;;;;;8.40;2.83;;;;;;;14.45;100.00;101639.53;5093933;28;20055;-50
2023/08/13 04:56:13;;;;;;;10.98;4.10;;;;;;;14.49;100.00;101634.78;5094903;28;20073;-48
2023/08/13 04:58:38;;;;;;;10.90;3.35;;;;;;;14.50;100.00;101631.16;5100115;28;20027;-49
2023/08/13 05:01:03;;;;;;;9.60;3.00;;;;;;;14.53;100.00;101634.44;5099787;28;20031;-49
2023/08/13 05:03:30;;;;;;;9.15;3.45;;;;;;;14.54;100.00;101633.47;5096965;28;20024;-48
2023/08/13 05:05:55;;;;;;;11.63;3.30;;;;;;;14.54;100.00;101628.13;5102173;28;20016;-49
2023/08/13 05:08:21;;;;;;;11.70;3.22;;;;;;;14.58;100.00;101624.19;5096130;28;20028;-49
2023/08/13 05:10:47;;;;;;;9.65;3.47;;;;;;;14.61;100.00;101618.66;5100553;28;20107;-48
2023/08/13 05:13:13;;;;;;;11.40;3.30;;;;;;;14.61;100.00;101610.63;5095554;28;20050;-49
2023/08/13 05:15:39;;;;;;;12.73;3.78;;;;;;;14.68;100.00;101620.81;5092091;28;20027;-48
2023/08/13 05:18:05;;;;;;;10.82;3.45;;;;;;;14.71;100.00;101626.78;5096726;28;20675;-51
2023/08/13 05:20:30;;;;;;;13.63;3.35;;;;;;;14.72;100.00;101620.47;5094238;28;20482;-49
2023/08/13 05:22:55;;;;;;;12.13;4.07;;;;;;;14.77;100.00;101628.06;5099464;28;20031;-49
2023/08/13 05:25:21;;;;;;;9.15;3.30;;;;;;;14.80;100.00;101635.84;5094862;28;20116;-50
2023/08/13 05:27:46;;;;;;;10.13;3.97;;;;;;;14.82;100.00;101639.25;5098295;28;20231;-52
2023/08/13 05:30:11;;;;;;;10.87;3.73;;;;;;;14.84;100.00;101634.66;5100024;28;20465;-49
2023/08/13 05:32:36;;;;;;;10.15;3.83;;;;;;;14.84;100.00;101628.44;5094836;28;20289;-50
2023/08/13 05:35:02;;;;;;;11.55;3.80;;;;;;;14.89;100.00;101636.91;5097442;28;20060;-49
2023/08/13 05:37:27;;;;;;;13.45;3.55;;;;;;;14.91;100.00;101630.47;5097175;28;20028;-51
2023/08/13 05:39:53;;;;;;;15.57;3.80;;;;;;;14.92;100.00;101632.19;5102979;28;20023;-50
2023/08/13 05:42:19;;;;;;;11.88;3.75;;;;;;;14.93;100.00;101636.53;5096338;28;20024;-52
2023/08/13 05:44:44;;;;;;;13.05;3.33;;;;;;;14.96;100.00;101632.78;5094834;28;20108;-51
2023/08/13 05:47:10;;;;;;;14.18;3.55;;;;;;;15.03;100.00;101633.97;5097018;28;20036;-49
2023/08/13 05:49:35;;;;;;;15.27;3.78;;;;;;;15.07;100.00;101640.78;5097802;28;20030;-49
2023/08/13 05:52:00;;;;;;;11.18;3.42;;;;;;;15.13;100.00;101639.41;5096729;28;20032;-49
2023/08/13 05:54:26;;;;;;;13.32;3.80;;;;;;;15.15;100.00;101638.31;5096548;28;20028;-49
2023/08/13 05:56:51;;;;;;;10.10;3.22;;;;;;;15.23;100.00;101652.88;5096139;28;20043;-49
2023/08/13 05:59:16;;;;;;;13.32;4.20;;;;;;;15.29;100.00;101647.84;5094843;28;20103;-49
2023/08/13 06:01:42;;;;;;;9.70;3.80;;;;;;;15.38;100.00;101650.72;5100540;28;20028;-49
2023/08/13 06:04:07;;;;;;;14.27;3.22;;;;;;;15.44;100.00;101639.50;5100207;28;20081;-49
2023/08/13 06:06:32;;;;;;;11.38;3.38;;;;;;;15.51;100.00;101649.56;5099502;28;20032;-49
2023/08/13 06:08:58;;;;;;;10.13;3.10;;;;;;;15.62;100.00;101653.16;5099646;28;20528;-49
2023/08/13 06:11:23;;;;;;;11.63;3.53;;;;;;;15.67;100.00;101645.56;5090960;28;20123;-49
2023/08/13 06:13:50;;;;;;;11.52;4.03;;;;;;;15.75;100.00;101644.91;5095946;28;20512;-49
2023/08/13 06:16:15;;;;;;;13.55;3.33;;;;;;;15.82;100.00;101644.31;5089845;28;20436;-49
2023/08/13 06:18:41;;;;;;;13.55;3.55;;;;;;;15.89;100.00;101642.78;5087146;28;20023;-48
2023/08/13 06:21:06;;;;;;;11.27;3.10;;;;;;;15.95;100.00;101644.06;5092207;28;20056;-49
2023/08/13 06:23:32;;;;;;;10.02;3.38;;;;;;;16.03;100.00;101648.78;5087942;28;20043;-48
2023/08/13 06:25:57;;;;;;;12.07;3.38;;;;;;;16.05;100.00;101639.63;5096773;28;20028;-48
2023/08/13 06:28:23;;;;;;;11.27;3.83;;;;;;;16.12;100.00;101645.31;5090094;28;20146;-49
2023/08/13 06:30:48;;;;;;;9.38;3.35;;;;;;;16.18;100.00;101649.25;5092428;28;20046;-49
2023/08/13 06:33:13;;;;;;;12.75;3.45;;;;;;;16.23;100.00;101645.19;5084539;28;20534;-49
2023/08/13 06:35:43;;;;;;;10.60;3.17;;;;;;;16.27;100.00;101641.25;5092090;28;20435;-49
2023/08/13 06:38:09;;;;;;;13.98;3.67;;;;;;;16.39;100.00;101647.38;5091685;28;20583;-49
2023/08/13 06:40:34;;;;;;;15.10;3.17;;;;;;;16.50;100.00;101645.56;5090029;28;20048;-49
2023/08/13 06:42:59;;;;;;;10.98;3.58;;;;;;;16.56;100.00;101645.03;5090713;28;20564;-49
2023/08/13 06:45:26;;;;;;;13.68;3.22;;;;;;;16.64;100.00;101648.72;5093922;28;20088;-49
2023/08/13 06:47:51;;;;;;;11.80;3.45;;;;;;;16.68;100.00;101649.28;5097847;28;20354;-48
2023/08/13 06:50:17;;;;;;;9.55;3.05;;;;;;;16.74;100.00;101643.38;5094687;28;20031;-49
2023/08/13 06:52:42;;;;;;;10.88;3.10;;;;;;;16.78;100.00;101638.56;5097747;28;20023;-48
2023/08/13 06:55:07;;;;;;;11.98;3.20;;;;;;;16.89;100.00;101648.38;5092812;28;20123;-49
2023/08/13 06:57:33;;;;;;;12.93;3.47;;;;;;;16.97;100.00;101645.81;5092603;28;20036;-49
2023/08/13 06:59:58;;;;;;;12.27;3.33;;;;;;;17.05;100.00;101647.81;5091663;28;20182;-49
2023/08/13 07:02:23;;;;;;;9.60;2.88;;;;;;;17.12;100.00;101643.56;5095958;28;20036;-49
2023/08/13 07:04:49;;;;;;;9.32;3.08;;;;;;;17.19;99.79;101642.03;5095594;28;20028;-50
2023/08/13 07:07:15;;;;;;;11.60;3.00;;;;;;;17.28;100.00;101634.97;5103552;28;20032;-49
2023/08/13 07:09:40;;;;;;;10.65;3.08;;;;;;;17.37;99.89;101644.84;5100184;28;20031;-50
2023/08/13 07:12:06;;;;;;;10.10;2.80;;;;;;;17.47;99.69;101644.81;5096094;28;20036;-49
2023/08/13 07:14:31;;;;;;;10.82;3.00;;;;;;;17.58;100.00;101639.31;5101306;28;20023;-48
2023/08/13 07:16:56;;;;;;;10.13;3.03;;;;;;;17.66;98.64;101634.06;5102106;28;20358;-49
2023/08/13 07:19:21;;;;;;;11.02;2.97;;;;;;;17.76;98.84;101634.03;5096847;28;20016;-49
2023/08/13 07:21:47;;;;;;;13.48;3.20;;;;;;;17.97;98.34;101641.94;5098082;28;20027;-49
2023/08/13 07:24:12;;;;;;;9.95;3.47;;;;;;;18.15;98.01;101643.84;5098298;28;20426;-49
2023/08/13 07:26:37;;;;;;;8.63;2.80;;;;;;;18.29;98.58;101636.13;5092198;28;20126;-49
2023/08/13 07:29:06;;;;;;;11.35;2.97;;;;;;;18.38;96.33;101633.53;5098985;28;20051;-50
2023/08/13 07:31:34;;;;;;;12.23;2.90;;;;;;;18.52;95.72;101638.44;5097298;28;20039;-49
2023/08/13 07:34:00;;;;;;;10.38;2.95;;;;;;;18.66;96.04;101637.91;5099358;28;20107;-50
2023/08/13 07:36:25;;;;;;;9.30;2.55;;;;;;;18.83;95.31;101632.72;5097112;28;20107;-49
2023/08/13 07:38:50;;;;;;;14.02;3.15;;;;;;;18.97;94.57;101634.06;5092041;28;20024;-49
2023/08/13 07:41:16;;;;;;;10.20;2.70;;;;;;;19.10;95.18;101634.53;5098225;28;20028;-49
2023/08/13 07:43:41;;;;;;;13.30;2.35;;;;;;;19.23;95.51;101636.81;5099224;28;20026;-49
2023/08/13 07:46:06;;;;;;;11.10;3.22;;;;;;;19.31;92.66;101644.97;5098395;28;20032;-54
2023/08/13 07:48:32;;;;;;;10.93;2.60;;;;;;;19.41;90.65;101648.41;5091020;28;20036;-50
2023/08/13 07:50:57;;;;;;;7.95;2.33;;;;;;;19.53;90.79;101637.38;5096788;28;20119;-49
2023/08/13 07:53:22;;;;;;;13.63;2.97;;;;;;;19.73;90.33;101641.59;5093013;28;20051;-49
2023/08/13 07:55:49;;;;;;;10.57;2.70;;;;;;;19.95;89.53;101628.59;5100427;28;20428;-49
2023/08/13 07:58:15;;;;;;;7.97;2.50;;;;;;;20.05;86.68;101631.16;5098791;27;20036;-48
2023/08/13 08:00:41;;;;;;;8.48;2.47;;;;;;;20.20;86.71;101628.72;5102106;28;20077;-49
2023/08/13 08:03:06;;;;;;;8.93;2.78;;;;;;;20.30;86.89;101626.72;5098638;28;20024;-48
2023/08/13 08:05:31;;;;;;;10.88;2.80;;;;;;;20.41;86.03;101631.00;5091506;28;20058;-48
2023/08/13 08:07:57;;;;;;;7.40;2.40;;;;;;;20.47;85.45;101630.34;5098419;28;20066;-48
2023/08/13 08:10:23;;;;;;;9.25;2.30;;;;;;;20.59;85.17;101639.00;5098079;28;20032;-49
2023/08/13 08:12:49;;;;;;;7.97;2.65;;;;;;;20.62;84.87;101631.41;5098158;28;20506;-52
2023/08/13 08:15:14;;;;;;;12.13;3.47;;;;;;;20.64;82.05;101629.41;5097245;28;20024;-49
2023/08/13 08:17:39;;;;;;;13.75;2.45;;;;;;;20.65;80.54;101638.34;5099790;28;20032;-48
2023/08/13 08:20:06;;;;;;;10.18;2.30;;;;;;;20.71;81.37;101632.28;5098633;27;20035;-49
2023/08/13 08:22:32;;;;;;;8.82;2.67;;;;;;;20.75;82.72;101636.38;5101688;28;20473;-50
2023/08/13 08:24:57;;;;;;;11.95;2.70;;;;;;;20.77;82.34;101631.66;5101392;28;20038;-49
2023/08/13 08:27:22;;;;;;;9.90;2.33;;;;;;;20.83;82.90;101628.28;5103396;28;20404;-48
2023/08/13 08:29:48;;;;;;;10.52;2.58;;;;;;;20.85;82.29;101633.50;5096582;28;20385;-48
2023/08/13 08:32:13;;;;;;;7.95;2.20;;;;;;;20.93;79.48;101630.81;5092355;28;20389;-49
2023/08/13 08:34:38;;;;;;;11.63;2.50;;;;;;;21.00;80.81;101630.97;5096524;28;20381;-49
2023/08/13 08:37:04;;;;;;;10.23;2.60;;;;;;;21.04;80.13;101630.50;5094853;28;20048;-48
2023/08/13 08:39:30;;;;;;;12.25;2.78;;;;;;;21.12;80.28;101635.06;5097783;28;20043;-49
2023/08/13 08:41:57;;;;;;;6.47;2.20;;;;;;;21.16;78.61;101627.47;5100365;28;20023;-49
2023/08/13 08:44:24;;;;;;;10.38;2.45;;;;;;;21.25;80.11;101621.91;5094221;28;20065;-49
2023/08/13 08:46:53;;;;;;;9.68;2.80;;;;;;;21.31;79.40;101628.47;5099300;28;20035;-47
2023/08/13 08:49:21;;;;;;;9.88;2.60;;;;;;;21.37;76.73;101625.09;5096135;28;20051;-47
2023/08/13 08:51:48;;;;;;;9.82;2.50;;;;;;;21.49;76.15;101625.63;5095402;28;20020;-48
2023/08/13 08:54:14;;;;;;;7.55;2.25;;;;;;;21.61;75.35;101632.34;5088589;28;20030;-48
2023/08/13 08:56:39;;;;;;;13.10;2.42;;;;;;;21.71;75.94;101625.94;5098126;28;20040;-47
2023/08/13 08:59:05;;;;;;;9.80;2.35;;;;;;;21.76;74.15;101626.25;5096512;28;20073;-48
2023/08/13 09:01:31;;;;;;;8.68;2.42;;;;;;;21.85;74.91;101617.13;5099884;28;20035;-48
2023/08/13 09:03:56;;;;;;;8.80;3.05;;;;;;;21.90;73.63;101613.88;5098669;28;20020;-47
2023/08/13 09:06:21;;;;;;;9.20;2.33;;;;;;;21.91;73.28;101616.41;5094087;28;20040;-46
2023/08/13 09:08:47;;;;;;;7.78;2.53;;;;;;;22.06;73.66;101602.19;5101004;28;20023;-47
2023/08/13 09:11:13;;;;;;;7.63;2.13;;;;;;;22.17;73.84;101608.03;5097208;28;20035;-47
2023/08/13 09:13:47;;;;;;;9.13;2.08;;;;;;;22.25;73.97;101611.72;5096937;28;20177;-46
2023/08/13 09:16:13;;;;;;;7.80;2.38;;;;;;;22.34;71.94;101610.72;5096752;28;20055;-47
2023/08/13 09:18:41;;;;;;;7.85;2.83;;;;;;;22.48;70.54;101599.16;5063063;28;20498;-46
2023/08/13 09:21:08;;;;;;;10.47;2.73;;;;;;;22.61;71.08;101601.25;5101093;28;20051;-46
2023/08/13 09:23:37;;;;;;;6.80;2.60;;;;;;;22.63;72.09;101595.66;5096713;28;20687;-46
2023/08/13 09:26:02;;;;;;;7.78;2.10;;;;;;;22.68;71.14;101607.66;5091717;28;20042;-47
2023/08/13 09:28:27;;;;;;;9.10;2.35;;;;;;;22.74;69.31;101603.38;5093462;28;20028;-46
2023/08/13 09:30:53;;;;;;;9.95;2.40;;;;;;;22.91;69.11;101598.69;5090542;28;20099;-47
2023/08/13 09:33:18;;;;;;;7.00;2.17;;;;;;;23.02;68.14;101595.56;5091483;28;20432;-46
2023/08/13 09:35:45;;;;;;;8.82;2.70;;;;;;;23.06;66.54;101588.75;5093406;28;20028;-47
2023/08/13 09:38:11;;;;;;;8.95;2.10;;;;;;;23.36;68.09;101593.44;5094641;28;20432;-46
2023/08/13 09:40:36;;;;;;;7.82;3.17;;;;;;;23.52;68.11;101576.16;5094666;28;20047;-47
2023/08/13 09:43:09;;;;;;;11.93;2.95;;;;;;;23.70;66.53;101579.38;5092800;28;20139;-49
2023/08/13 09:45:35;;;;;;;6.47;2.20;;;;;;;23.85;64.72;101564.97;5089810;28;20079;-49
2023/08/13 09:48:04;;;;;;;8.80;2.25;;;;;;;24.01;64.80;101570.19;5094854;28;20094;-48
2023/08/13 09:50:34;;;;;;;10.27;2.40;;;;;;;24.08;64.16;101570.28;5100432;28;20027;-48
2023/08/13 09:53:01;;;;;;;6.75;2.60;;;;;;;24.10;63.16;101566.38;5093325;28;20032;-48
2023/08/13 09:55:31;;;;;;;7.10;2.20;;;;;;;24.26;63.06;101572.59;5093715;28;20028;-50
2023/08/13 09:58:00;;;;;;;9.10;2.20;;;;;;;24.26;63.20;101564.44;5094546;28;20386;-49
2023/08/13 10:00:27;;;;;;;6.85;2.13;;;;;;;24.39;62.43;101557.28;5097754;28;20374;-48
2023/08/13 10:02:52;;;;;;;10.13;2.53;;;;;;;24.45;62.89;101569.28;5100821;28;20024;-50
2023/08/13 10:05:18;;;;;;;7.57;2.20;;;;;;;24.53;60.27;101557.44;5097451;28;20035;-48
2023/08/13 10:07:45;;;;;;;8.07;2.10;;;;;;;24.60;60.47;101558.41;5099812;28;20477;-48
2023/08/13 10:10:10;;;;;;;6.25;2.35;;;;;;;25.00;61.14;101555.22;5094168;28;20078;-48
2023/08/13 10:12:36;;;;;;;9.57;2.40;;;;;;;25.25;59.39;101555.63;5099442;28;20505;-48
2023/08/13 10:15:02;;;;;;;9.35;2.40;;;;;;;25.38;57.56;101553.03;5083375;28;20510;-51
2023/08/13 10:17:28;;;;;;;9.15;2.65;;;;;;;25.51;58.73;101554.16;5097191;28;20080;-49
2023/08/13 10:19:55;;;;;;;11.95;3.03;;;;;;;25.48;57.24;101550.81;5090000;28;20040;-51
2023/08/13 10:22:34;;;;;;;13.10;2.58;;;;;;;25.47;58.82;101548.28;5097584;28;20168;-49
2023/08/13 10:25:00;;;;;;;9.23;2.22;;;;;;;25.46;57.05;101552.88;5090983;28;20032;-48
2023/08/13 10:27:27;;;;;;;7.70;2.17;;;;;;;25.39;57.44;101551.16;5101336;28;20103;-49
2023/08/13 10:30:12;;;;;;;9.38;2.60;;;;;;;25.36;59.98;101551.53;5091464;28;20020;-48
2023/08/13 10:33:00;;;;;;;7.53;2.28;;;;;;;25.35;60.47;101544.41;5092928;28;20138;-48
2023/08/13 10:35:30;;;;;;;;;;;;;;;25.51;61.78;101546.81;5095848;28;20034;-48
2023/08/13 10:38:00;;;;;;;11.05;2.55;;;;;;;25.27;57.77;101548.97;5091003;28;19957;-48
2023/08/13 10:40:26;;;;;;;6.75;2.17;;;;;;;25.19;57.55;101549.09;5096838;28;20455;-48
2023/08/13 10:42:53;;;;;;;9.98;2.17;;;;;;;25.25;57.60;101547.47;5097521;28;20111;-49
2023/08/13 10:45:22;;;;;;;6.97;2.50;;;;;;;25.30;56.47;101537.72;5098177;28;20398;-49
2023/08/13 10:47:48;;;;;;;9.02;2.30;;;;;;;25.40;56.01;101545.53;5101218;28;20028;-48
2023/08/13 10:50:16;;;;;;;7.63;2.43;;;;;;;25.51;55.63;101532.41;5097143;28;20032;-48
2023/08/13 10:52:41;;;;;;;11.02;2.97;;;;;;;25.73;54.13;101531.28;5098014;28;20373;-48
2023/08/13 10:55:10;;;;;;;6.40;2.25;;;;;;;26.05;55.00;101539.81;5094286;28;20038;-48
2023/08/13 10:57:35;;;;;;;8.35;2.40;;;;;;;26.17;53.06;101532.72;5098139;28;20090;-51
2023/08/13 11:00:02;;;;;;;10.23;3.03;;;;;;;26.22;54.29;101532.13;5099023;28;20032;-50
2023/08/13 11:02:30;;;;;;;7.72;2.22;;;;;;;26.54;54.17;101526.97;5097606;28;20028;-48
2023/08/13 11:04:56;;;;;;;7.82;2.50;;;;;;;26.66;53.40;101528.03;5095913;28;20032;-48
2023/08/13 11:07:23;;;;;;;6.25;2.35;;;;;;;26.82;54.70;101529.53;5099210;28;20012;-49
2023/08/13 11:09:48;;;;;;;8.10;2.47;;;;;;;26.79;52.81;101526.41;5099957;28;20059;-48
2023/08/13 11:12:15;;;;;;;11.50;2.85;;;;;;;26.71;51.35;101531.00;5101822;28;20064;-48
2023/08/13 11:14:40;;;;;;;6.68;2.30;;;;;;;26.92;51.85;101520.94;5093681;28;20024;-48